Dades meteomassalio
Diari Summary for Maig 18, 2017 Units:  English    Metric   Both
« Previous Day
Next Day »
Diari Semanal Mensual Anual Personalitzat
  Maxima: Minima: Mijana:
Temperatura: TemperatureC °F 10.9 °F 15.4 °F
Rosada: DewpointC °F 7.0 °F 9.7 °F
Humitat: Humidity % 43 % 70 %
Velocitat del vent: WindSpeedKMH mph 0.0 mph 11.1 mph
Racha vent: WindSpeedGustKMH mph - -
Vent:- - WNW
Pressio: PressurehPa in 1011.1 in -
Pluja: 8.9 in    
Historical Graphs
 
 
Tabular Data for Maig 18, 2017
Time Temperature Dew Point Pressure Wind Wind Speed Wind Gust Humidity Rainfall Rate (Hourly) solar Conditions
TemperatureC °F DewpointC °F PressurehPa in Calm     Humidity % HourlyPrecipMM in SolarRadiationWatts/m^2 W/m2 Conditions
00:01 20.4 °F 8.4 °F 1014.1 in Calm     46 % 0.0 in 0.0 W/m2 CLR
00:06 20.4 °F 8.1 °F 1014.1 in Calm     45 % 0.0 in 0.0 W/m2 CLR
00:11 20.4 °F 7.7 °F 1014.1 in Calm     44 % 0.0 in 0.0 W/m2 CLR
00:16 20.5 °F 7.5 °F 1014.1 in Calm     43 % 0.0 in 0.0 W/m2 CLR
00:21 20.6 °F 7.6 °F 1013.8 in Calm     43 % 0.0 in 0.0 W/m2 CLR
00:26 20.6 °F 7.6 °F 1013.8 in Calm     43 % 0.0 in 0.0 W/m2 CLR
00:31 20.4 °F 7.7 °F 1013.8 in Calm     44 % 0.0 in 0.0 W/m2 CLR
00:36 20.1 °F 7.7 °F 1013.8 in Calm     45 % 0.0 in 0.0 W/m2 CLR
00:41 19.8 °F 8.1 °F 1013.8 in Calm     47 % 0.0 in 0.0 W/m2 CLR
00:44 19.6 °F 8.0 °F 1014.1 in Calm     47 % 0.0 in 0.0 W/m2 CLR
00:45 19.6 °F 8.0 °F 1014.1 in Calm     47 % 0.0 in 0.0 W/m2 CLR
00:50 19.6 °F 8.3 °F 1013.8 in Calm     48 % 0.0 in 0.0 W/m2 CLR
00:55 19.5 °F 8.2 °F 1013.8 in Calm     48 % 0.0 in 0.0 W/m2 CLR
01:00 19.3 °F 7.7 °F 1014.1 in Calm     47 % 0.0 in 0.0 W/m2 CLR
01:05 19.4 °F 7.4 °F 1013.8 in Calm     46 % 0.0 in 0.0 W/m2 CLR
01:10 19.4 °F 7.5 °F 1013.8 in Calm     46 % 0.0 in 0.0 W/m2 CLR
01:15 19.3 °F 7.4 °F 1014.1 in Calm     46 % 0.0 in 0.0 W/m2 CLR
01:20 19.4 °F 7.2 °F 1014.1 in Calm     45 % 0.0 in 0.0 W/m2 CLR
01:25 19.5 °F 7.9 °F 1013.8 in Calm     47 % 0.0 in 0.0 W/m2 CLR
01:30 19.2 °F 8.2 °F 1013.8 in Calm     49 % 0.0 in 0.0 W/m2 CLR
01:35 18.8 °F 8.2 °F 1013.8 in Calm     50 % 0.0 in 0.0 W/m2 CLR
01:40 19.1 °F 7.5 °F 1013.4 in Calm     47 % 0.0 in 0.0 W/m2 CLR
01:45 19.0 °F 8.1 °F 1013.4 in Calm     49 % 0.0 in 0.0 W/m2 CLR
01:50 18.8 °F 7.2 °F 1013.4 in Calm     47 % 0.0 in 0.0 W/m2 CLR
01:55 18.9 °F 8.2 °F 1013.4 in Calm     50 % 0.0 in 0.0 W/m2 CLR
02:00 18.7 °F 8.1 °F 1013.4 in Calm     50 % 0.0 in 0.0 W/m2 CLR
02:05 18.5 °F 8.4 °F 1013.4 in Calm     52 % 0.0 in 0.0 W/m2 CLR
02:10 18.2 °F 7.6 °F 1013.4 in Calm     50 % 0.0 in 0.0 W/m2 CLR
02:15 18.2 °F 7.6 °F 1013.4 in Calm     50 % 0.0 in 0.0 W/m2 CLR
02:20 18.2 °F 7.8 °F 1013.4 in Calm     51 % 0.0 in 0.0 W/m2 CLR
02:25 18.1 °F 8.1 °F 1013.4 in Calm     52 % 0.0 in 0.0 W/m2 CLR
02:30 17.8 °F 8.1 °F 1013.4 in Calm     53 % 0.0 in 0.0 W/m2 CLR
02:35 17.7 °F 7.7 °F 1013.1 in Calm     52 % 0.0 in 0.0 W/m2 CLR
02:40 17.5 °F 7.8 °F 1013.1 in Calm     53 % 0.0 in 0.0 W/m2 CLR
02:45 17.3 °F 7.9 °F 1013.1 in Calm     54 % 0.0 in 0.0 W/m2 CLR
02:50 17.1 °F 7.7 °F 1013.4 in Calm     54 % 0.0 in 0.0 W/m2 CLR
02:52 17.0 °F 7.3 °F 1013.1 in Calm     53 % 0.0 in 0.0 W/m2 CLR
02:57 17.1 °F 7.9 °F 1013.1 in Calm     55 % 0.0 in 0.0 W/m2 CLR
03:02 17.0 °F 7.6 °F 1013.1 in Calm     54 % 0.0 in 0.0 W/m2 CLR
03:07 17.0 °F 7.3 °F 1013.1 in Calm     53 % 0.0 in 0.0 W/m2 CLR
03:12 17.1 °F 7.4 °F 1013.1 in Calm     53 % 0.0 in 0.0 W/m2 CLR
03:17 17.1 °F 7.4 °F 1013.1 in Calm     53 % 0.0 in 0.0 W/m2 CLR
03:22 17.2 °F 7.5 °F 1013.1 in Calm     53 % 0.0 in 0.0 W/m2 CLR
03:27 17.2 °F 7.8 °F 1013.1 in Calm     54 % 0.0 in 0.0 W/m2 CLR
03:32 17.2 °F 7.8 °F 1013.1 in Calm     54 % 0.0 in 0.0 W/m2 CLR
03:37 17.1 °F 7.7 °F 1013.1 in Calm     54 % 0.0 in 0.0 W/m2 CLR
03:42 17.0 °F 7.9 °F 1013.1 in Calm     55 % 0.0 in 0.0 W/m2 CLR
03:47 16.9 °F 8.4 °F 1013.1 in Calm     57 % 0.0 in 0.0 W/m2 CLR
03:52 17.0 °F 8.2 °F 1013.1 in Calm     56 % 0.0 in 0.0 W/m2 CLR
03:57 17.0 °F 8.4 °F 1013.1 in Calm     57 % 0.0 in 0.0 W/m2 CLR
04:02 16.9 °F 8.4 °F 1012.8 in Calm     57 % 0.0 in 0.0 W/m2 CLR
04:07 16.9 °F 8.3 °F 1012.8 in Calm     57 % 0.0 in 0.0 W/m2 CLR
04:12 16.8 °F 8.2 °F 1012.8 in Calm     57 % 0.0 in 0.0 W/m2 CLR
04:17 16.7 °F 8.3 °F 1012.8 in Calm     58 % 0.0 in 0.0 W/m2 CLR
04:22 16.6 °F 8.3 °F 1012.8 in Calm     58 % 0.0 in 0.0 W/m2 CLR
04:27 16.4 °F 7.9 °F 1012.8 in Calm     57 % 0.0 in 0.0 W/m2 CLR
04:32 16.2 °F 7.9 °F 1012.8 in Calm     58 % 0.0 in 0.0 W/m2 CLR
04:37 16.1 °F 8.1 °F 1012.8 in Calm     59 % 0.0 in 0.0 W/m2 CLR
04:42 15.9 °F 7.9 °F 1012.8 in Calm     59 % 0.0 in 0.0 W/m2 CLR
04:47 15.5 °F 8.0 °F 1012.4 in Calm     61 % 0.0 in 0.0 W/m2 CLR
04:52 15.3 °F 8.1 °F 1012.4 in Calm     62 % 0.0 in 0.0 W/m2 CLR
04:57 15.3 °F 8.1 °F 1012.4 in Calm     62 % 0.0 in 0.0 W/m2 CLR
05:02 15.3 °F 8.1 °F 1012.4 in Calm     62 % 0.0 in 0.0 W/m2 CLR
05:07 15.4 °F 8.2 °F 1012.4 in Calm     62 % 0.0 in 0.0 W/m2 CLR
05:12 15.4 °F 8.4 °F 1012.4 in Calm     63 % 0.0 in 0.0 W/m2 CLR
05:17 15.3 °F 8.3 °F 1012.4 in Calm     63 % 0.0 in 0.0 W/m2 CLR
05:22 15.1 °F 8.3 °F 1012.1 in Calm     64 % 0.0 in 0.0 W/m2 CLR
05:27 14.9 °F 7.9 °F 1012.1 in Calm     63 % 0.0 in 0.0 W/m2 CLR
05:32 14.7 °F 8.0 °F 1012.1 in Calm     64 % 0.0 in 0.0 W/m2 CLR
05:37 14.6 °F 8.1 °F 1012.1 in Calm     65 % 0.0 in 0.0 W/m2 CLR
05:42 14.2 °F 7.9 °F 1012.1 in Calm     66 % 0.0 in 0.0 W/m2 CLR
05:47 14.1 °F 8.1 °F 1012.1 in Calm     67 % 0.0 in 0.0 W/m2 CLR
05:52 14.1 °F 8.0 °F 1012.1 in Calm     67 % 0.0 in 0.0 W/m2 CLR
05:57 14.1 °F 8.0 °F 1012.1 in Calm     67 % 0.0 in 0.0 W/m2 CLR
06:02 14.1 °F 8.0 °F 1012.1 in Calm     67 % 0.0 in 0.0 W/m2 CLR
06:07 14.0 °F 7.9 °F 1012.1 in Calm     67 % 0.0 in 0.0 W/m2 CLR
06:12 14.0 °F 7.9 °F 1012.1 in Calm     67 % 0.0 in 0.0 W/m2 CLR
06:17 13.9 °F 7.8 °F 1011.7 in Calm     67 % 0.0 in 0.0 W/m2 CLR
06:22 13.8 °F 7.9 °F 1012.1 in Calm     68 % 0.0 in 0.0 W/m2 CLR
06:27 13.7 °F 7.9 °F 1012.1 in Calm     68 % 0.0 in 0.0 W/m2 CLR
06:32 13.6 °F 7.8 °F 1012.1 in Calm     68 % 0.0 in 0.0 W/m2 OVC
06:37 13.5 °F 7.9 °F 1012.1 in Calm     69 % 0.0 in 0.0 W/m2 OVC
06:42 13.4 °F 7.8 °F 1012.1 in Calm     69 % 0.0 in 5.0 W/m2 OVC
06:47 13.3 °F 7.9 °F 1012.1 in Calm     70 % 0.0 in 9.0 W/m2 BKN
06:52 13.2 °F 7.9 °F 1012.1 in Calm     70 % 0.0 in 12.0 W/m2 BKN
06:57 13.1 °F 7.9 °F 1012.1 in Calm     71 % 0.0 in 19.0 W/m2 BKN
07:02 13.0 °F 7.9 °F 1012.1 in Calm     71 % 0.0 in 26.0 W/m2 BKN
07:07 13.0 °F 8.1 °F 1012.1 in Calm     72 % 0.0 in 28.0 W/m2 BKN
07:12 13.1 °F 8.1 °F 1012.1 in Calm     72 % 0.0 in 33.0 W/m2 BKN
07:17 13.1 °F 8.2 °F 1012.1 in Calm     72 % 0.0 in 40.0 W/m2 BKN
07:22 13.2 °F 8.1 °F 1012.1 in Calm     71 % 0.0 in 42.0 W/m2 BKN
07:27 13.4 °F 8.0 °F 1012.1 in Calm     70 % 0.0 in 56.0 W/m2 SCT
07:33 13.6 °F 8.0 °F 1012.1 in Calm     69 % 0.0 in 69.0 W/m2 FEW
07:38 13.8 °F 8.2 °F 1012.1 in Calm     69 % 0.0 in 81.0 W/m2 FEW
07:43 14.1 °F 8.0 °F 1012.1 in Calm     67 % 0.0 in 100.0 W/m2 FEW
07:48 14.3 °F 8.0 °F 1012.1 in Calm     66 % 0.0 in 139.0 W/m2 CLR
07:53 14.6 °F 8.3 °F 1012.1 in Calm     66 % 0.0 in 176.0 W/m2 CLR
07:58 15.0 °F 8.7 °F 1012.1 in Calm     66 % 0.0 in 214.0 W/m2 CLR
08:03 15.4 °F 8.7 °F 1012.1 in Calm     64 % 0.0 in 221.0 W/m2 CLR
08:08 15.9 °F 8.8 °F 1012.1 in Calm     63 % 0.0 in 221.0 W/m2 CLR
08:13 16.2 °F 8.9 °F 1012.1 in Calm     62 % 0.0 in 221.0 W/m2 CLR
08:18 16.4 °F 8.9 °F 1012.1 in Calm     61 % 0.0 in 193.0 W/m2 CLR
08:23 16.7 °F 8.9 °F 1012.1 in Calm     60 % 0.0 in 149.0 W/m2 CLR
08:28 16.8 °F 9.0 °F 1012.1 in Calm     60 % 0.0 in 76.0 W/m2 CLR
08:33 17.0 °F 9.2 °F 1012.1 in Calm     60 % 0.0 in 178.0 W/m2 CLR
08:38 17.1 °F 9.1 °F 1012.1 in Calm     59 % 0.0 in 290.0 W/m2 CLR
08:43 17.5 °F 9.4 °F 1012.1 in Calm     59 % 0.0 in 360.0 W/m2 CLR
08:48 18.1 °F 9.4 °F 1012.1 in Calm     57 % 0.0 in 345.0 W/m2 CLR
08:53 18.5 °F 9.6 °F 1011.7 in Calm     56 % 0.0 in 309.0 W/m2 CLR
08:58 18.7 °F 9.5 °F 1011.7 in Calm     55 % 0.0 in 381.0 W/m2 CLR
09:03 18.9 °F 9.7 °F 1011.7 in Calm     55 % 0.0 in 418.0 W/m2 CLR
09:08 19.3 °F 10.0 °F 1011.7 in Calm     55 % 0.0 in 468.0 W/m2 CLR
09:13 19.3 °F 9.8 °F 1011.7 in Calm     54 % 0.0 in 162.0 W/m2 CLR
09:18 19.1 °F 9.8 °F 1011.7 in Calm     55 % 0.0 in 174.0 W/m2 CLR
09:23 18.9 °F 9.9 °F 1011.7 in Calm     56 % 0.0 in 257.0 W/m2 CLR
09:28 19.1 °F 10.3 °F 1011.4 in Calm     57 % 0.0 in 345.0 W/m2 CLR
09:33 19.3 °F 10.6 °F 1011.4 in Calm     57 % 0.0 in 281.0 W/m2 CLR
09:38 19.6 °F 11.1 °F 1011.4 in Calm     58 % 0.0 in 557.0 W/m2 CLR
09:43 19.8 °F 11.1 °F 1011.4 in Calm     57 % 0.0 in 172.0 W/m2 CLR
09:48 19.8 °F 10.8 °F 1011.4 in Calm     56 % 0.0 in 318.0 W/m2 CLR
09:53 20.0 °F 10.9 °F 1011.4 in Calm     56 % 0.0 in 563.0 W/m2 CLR
09:58 20.3 °F 10.7 °F 1011.1 in Calm     54 % 0.0 in 366.0 W/m2 CLR
10:03 20.6 °F 10.9 °F 1011.1 in Calm     54 % 0.0 in 552.0 W/m2 CLR
10:08 20.8 °F 10.9 °F 1011.1 in Calm     53 % 0.0 in 578.0 W/m2 CLR
10:13 21.1 °F 11.2 °F 1011.1 in Calm     53 % 0.0 in 605.0 W/m2 CLR
10:18 21.7 °F 11.1 °F 1011.4 in Calm     51 % 0.0 in 617.0 W/m2 CLR
10:23 21.9 °F 11.1 °F 1011.4 in Calm     50 % 0.0 in 559.0 W/m2 CLR
10:24 21.9 °F 11.3 °F 1011.4 in Calm     51 % 0.0 in 559.0 W/m2 CLR
10:29 22.0 °F 11.1 °F 1011.4 in NNE 3.2 mph 3.2 mph 50 % 0.0 in 234.0 W/m2 CLR
10:34 22.1 °F 11.5 °F 1011.4 in Calm     51 % 0.0 in 659.0 W/m2 CLR
10:39 22.4 °F 11.2 °F 1011.4 in Calm     49 % 0.0 in 596.0 W/m2 CLR
10:44 22.6 °F 11.9 °F 1011.4 in ENE 13.0 mph 13.0 mph 51 % 0.0 in 705.0 W/m2 CLR
10:49 22.7 °F 12.1 °F 1011.1 in ENE 9.3 mph 9.3 mph 51 % 0.0 in 874.0 W/m2 CLR
10:54 22.6 °F 11.3 °F 1011.1 in East 13.0 mph 13.0 mph 49 % 0.0 in 316.0 W/m2 CLR
10:59 22.2 °F 11.8 °F 1011.4 in North 9.7 mph 9.7 mph 52 % 0.0 in 318.0 W/m2 CLR
11:04 22.1 °F 12.1 °F 1011.7 in NNW 13.0 mph 13.0 mph 53 % 0.0 in 355.0 W/m2 CLR
11:09 21.9 °F 11.6 °F 1011.7 in NNW 18.5 mph 18.5 mph 52 % 0.0 in 297.0 W/m2 CLR
11:14 21.3 °F 11.6 °F 1012.1 in NW 24.1 mph 24.1 mph 54 % 0.0 in 258.0 W/m2 CLR
11:19 20.6 °F 11.7 °F 1012.1 in NW 29.6 mph 29.6 mph 57 % 0.0 in 485.0 W/m2 CLR
11:24 20.8 °F 12.3 °F 1012.1 in North 29.6 mph 29.6 mph 58 % 0.0 in 912.0 W/m2 CLR
11:29 21.4 °F 12.3 °F 1012.4 in North 31.5 mph 31.5 mph 56 % 0.0 in 983.0 W/m2 CLR
11:34 21.8 °F 12.3 °F 1012.4 in NNW 30.6 mph 30.6 mph 55 % 0.0 in 991.0 W/m2 CLR
11:39 21.5 °F 12.9 °F 1012.8 in NNW 30.6 mph 30.6 mph 58 % 0.0 in 422.0 W/m2 CLR
11:40 21.4 °F 13.1 °F 1012.8 in NNW 24.1 mph 24.3 mph 59 % 0.0 in 436.0 W/m2 CLR
11:45 20.7 °F 12.7 °F 1012.8 in NNW 37.0 mph 37.0 mph 60 % 0.0 in 306.0 W/m2 CLR
11:50 19.9 °F 12.9 °F 1013.1 in NNW 37.0 mph 37.0 mph 64 % 0.0 in 364.0 W/m2 CLR
11:55 19.5 °F 13.4 °F 1013.1 in NNW 33.3 mph 33.3 mph 68 % 0.0 in 355.0 W/m2 CLR
12:00 19.3 °F 13.1 °F 1013.1 in NNW 22.2 mph 22.2 mph 67 % 0.0 in 292.0 W/m2 CLR
12:05 19.5 °F 13.2 °F 1013.1 in NNW 18.5 mph 18.5 mph 67 % 0.0 in 364.0 W/m2 CLR
12:10 19.7 °F 13.6 °F 1013.1 in NNW 24.1 mph 24.1 mph 68 % 0.0 in 520.0 W/m2 CLR
12:15 19.8 °F 13.5 °F 1013.4 in NW 20.4 mph 20.4 mph 67 % 0.0 in 388.0 W/m2 CLR
12:20 19.7 °F 13.2 °F 1013.4 in NNW 25.9 mph 25.9 mph 66 % 0.0 in 248.0 W/m2 CLR
12:25 19.4 °F 13.2 °F 1013.4 in NW 31.5 mph 31.5 mph 67 % 0.0 in 172.0 W/m2 CLR
12:30 19.1 °F 12.8 °F 1013.1 in NNW 25.9 mph 25.9 mph 67 % 0.0 in 114.0 W/m2 CLR
12:35 18.8 °F 13.0 °F 1013.4 in NW 24.1 mph 24.1 mph 69 % 0.0 in 116.0 W/m2 CLR
12:40 18.4 °F 13.4 °F 1013.8 in NW 31.5 mph 31.5 mph 73 % 0.0 in 107.0 W/m2 CLR
12:45 18.1 °F 13.2 °F 1014.1 in NW 29.0 mph 29.0 mph 73 % 0.0 in 83.0 W/m2 CLR
12:50 17.7 °F 12.8 °F 1014.1 in NW 32.2 mph 32.2 mph 73 % 0.0 in 56.0 W/m2 CLR
12:55 17.4 °F 12.5 °F 1014.1 in WNW 31.5 mph 31.5 mph 73 % 0.0 in 40.0 W/m2 SCT
13:00 17.1 °F 13.1 °F 1014.4 in NW 24.1 mph 24.1 mph 77 % 0.0 in 25.0 W/m2 BKN
13:05 16.7 °F 13.3 °F 1014.4 in WNW 18.5 mph 18.5 mph 80 % 0.0 in 21.0 W/m2 BKN
13:10 16.4 °F 13.3 °F 1014.8 in WNW 22.2 mph 22.2 mph 82 % 0.0 in 21.0 W/m2 BKN
13:11 16.4 °F 13.3 °F 1014.8 in WNW 20.4 mph 20.4 mph 82 % 0.3 in 23.0 W/m2 RA
13:16 16.1 °F 13.4 °F 1014.8 in WNW 13.0 mph 13.0 mph 84 % 0.5 in 28.0 W/m2 RA
13:21 16.0 °F 13.7 °F 1014.4 in Calm     86 % 0.5 in 44.0 W/m2 RA
13:26 15.8 °F 13.5 °F 1013.8 in NNE 11.3 mph 11.3 mph 86 % 0.8 in 121.0 W/m2 RA
13:31 15.8 °F 13.7 °F 1013.8 in Calm     87 % 1.3 in 200.0 W/m2 RA
13:36 15.8 °F 13.7 °F 1013.8 in Calm     87 % 1.5 in 200.0 W/m2 RA
13:41 15.8 °F 13.8 °F 1013.8 in Calm     88 % 1.5 in 81.0 W/m2 RA
13:46 15.8 °F 13.8 °F 1014.4 in Calm     88 % 1.8 in 49.0 W/m2 RA
13:51 15.8 °F 13.8 °F 1014.4 in West 14.8 mph 14.8 mph 88 % 1.8 in 47.0 W/m2 SCT
13:56 15.7 °F 13.9 °F 1014.1 in Calm     89 % 2.3 in 33.0 W/m2 RA
14:01 15.7 °F 13.8 °F 1013.4 in Calm     89 % 2.3 in 37.0 W/m2 BKN
14:06 15.6 °F 13.8 °F 1013.4 in Calm     89 % 2.5 in 33.0 W/m2 RA
14:11 15.5 °F 13.7 °F 1013.4 in Calm     89 % 2.3 in 30.0 W/m2 BKN
14:16 15.5 °F 13.7 °F 1013.4 in Calm     89 % 2.8 in 30.0 W/m2 RA
14:21 15.4 °F 13.6 °F 1013.1 in SE 1.9 mph   89 % 2.8 in 39.0 W/m2 RA
14:26 15.4 °F 13.6 °F 1012.8 in SE 5.6 mph   89 % 2.5 in 53.0 W/m2 BKN
14:31 15.4 °F 13.8 °F 1012.8 in Calm     90 % 2.3 in 51.0 W/m2 RA
14:36 15.4 °F 13.8 °F 1012.8 in Calm     90 % 2.3 in 54.0 W/m2 SCT
14:41 15.3 °F 13.7 °F 1012.8 in Calm     90 % 2.0 in 69.0 W/m2 SCT
14:46 15.4 °F 13.8 °F 1012.8 in Calm     90 % 1.8 in 83.0 W/m2 FEW
14:51 15.4 °F 13.8 °F 1013.1 in Calm     90 % 2.0 in 72.0 W/m2 RA
14:57 15.4 °F 13.8 °F 1013.1 in Calm     90 % 1.5 in 60.0 W/m2 FEW
15:02 15.4 °F 13.8 °F 1013.1 in Calm     90 % 1.5 in 49.0 W/m2 SCT
15:07 15.3 °F 13.7 °F 1013.1 in Calm     90 % 1.3 in 83.0 W/m2 SCT
15:08 15.3 °F 13.7 °F 1013.1 in Calm     90 % 1.3 in 88.0 W/m2 SCT
15:13 15.2 °F 13.6 °F 1013.1 in Calm     90 % 1.0 in 109.0 W/m2 FEW
15:18 15.4 °F 13.8 °F 1012.8 in Calm     90 % 0.5 in 84.0 W/m2 CLR
15:23 15.4 °F 13.8 °F 1012.4 in Calm     90 % 0.5 in 74.0 W/m2 CLR
15:28 15.4 °F 13.8 °F 1012.8 in Calm     90 % 0.5 in 84.0 W/m2 RA
15:33 15.5 °F 13.9 °F 1012.8 in North 5.6 mph 5.6 mph 90 % 0.5 in 47.0 W/m2 RA
15:38 15.4 °F 13.8 °F 1012.4 in NNE 7.4 mph 7.4 mph 90 % 0.5 in 47.0 W/m2 SCT
15:43 15.4 °F 13.8 °F 1013.1 in North 5.6 mph 5.6 mph 90 % 1.0 in 79.0 W/m2 RA
15:48 15.4 °F 13.9 °F 1012.8 in Calm     91 % 1.0 in 237.0 W/m2 RA
15:53 15.6 °F 14.1 °F 1013.1 in Calm     91 % 1.0 in 225.0 W/m2 CLR
15:59 15.7 °F 14.3 °F 1013.4 in NNW 13.0 mph 13.0 mph 91 % 1.3 in 137.0 W/m2 RA
16:04 15.4 °F 13.8 °F 1013.4 in North 19.3 mph 19.3 mph 90 % 1.3 in 334.0 W/m2 CLR
16:09 13.9 °F 11.2 °F 1014.4 in NW 55.5 mph 55.5 mph 84 % 1.3 in 54.0 W/m2 CLR
16:14 12.6 °F 10.6 °F 1014.8 in NW 42.6 mph 42.6 mph 88 % 1.3 in 49.0 W/m2 FEW
16:19 12.0 °F 10.1 °F 1014.8 in NNW 40.7 mph 40.7 mph 88 % 1.3 in 42.0 W/m2 SCT
16:24 11.8 °F 9.8 °F 1014.4 in NW 40.7 mph 40.7 mph 88 % 1.3 in 70.0 W/m2 SCT
16:29 11.7 °F 9.9 °F 1014.8 in NW 35.2 mph 35.2 mph 89 % 1.0 in 67.0 W/m2 SCT
16:34 11.6 °F 9.8 °F 1014.8 in NNW 33.3 mph 33.3 mph 89 % 0.8 in 67.0 W/m2 FEW
16:39 11.6 °F 10.0 °F 1014.4 in NW 31.5 mph 31.5 mph 90 % 0.8 in 109.0 W/m2 FEW
16:44 11.6 °F 10.0 °F 1014.8 in NW 37.0 mph 37.0 mph 90 % 0.5 in 111.0 W/m2 CLR
16:49 11.6 °F 10.0 °F 1014.8 in NNW 25.9 mph 25.9 mph 90 % 0.3 in 83.0 W/m2 CLR
16:54 11.6 °F 10.0 °F 1014.8 in NW 24.1 mph 24.1 mph 90 % 0.3 in 83.0 W/m2 CLR
16:59 11.6 °F 9.9 °F 1015.1 in WNW 25.9 mph 25.9 mph 90 % 0.0 in 91.0 W/m2 CLR
17:04 11.6 °F 10.0 °F 1015.1 in NW 18.5 mph 18.5 mph 90 % 0.0 in 100.0 W/m2 CLR
17:09 11.6 °F 10.0 °F 1015.5 in WSW 22.2 mph 22.2 mph 90 % 0.0 in 47.0 W/m2 CLR
17:14 11.6 °F 9.8 °F 1015.8 in West 25.9 mph 25.9 mph 89 % 0.0 in 18.0 W/m2 SCT
17:19 11.6 °F 9.9 °F 1015.8 in West 31.5 mph 31.5 mph 90 % 0.0 in 28.0 W/m2 BKN
17:24 11.5 °F 9.9 °F 1015.8 in WNW 29.6 mph 29.6 mph 90 % 0.3 in 26.0 W/m2 RA
17:29 11.3 °F 9.8 °F 1015.8 in West 31.5 mph 31.5 mph 90 % 0.5 in 30.0 W/m2 RA
17:34 11.3 °F 9.7 °F 1015.5 in WNW 25.9 mph 25.9 mph 90 % 0.8 in 37.0 W/m2 RA
17:39 11.3 °F 9.9 °F 1015.8 in West 22.5 mph 22.5 mph 91 % 1.0 in 30.0 W/m2 RA
17:44 11.2 °F 9.8 °F 1015.5 in NW 20.4 mph 20.4 mph 91 % 1.5 in 40.0 W/m2 RA
17:49 11.2 °F 9.8 °F 1015.5 in WNW 25.9 mph 25.9 mph 91 % 2.0 in 51.0 W/m2 RA
17:54 11.2 °F 9.8 °F 1015.5 in WNW 27.8 mph 27.8 mph 91 % 2.3 in 49.0 W/m2 RA
17:59 11.2 °F 9.8 °F 1015.8 in WNW 20.4 mph 20.4 mph 91 % 2.5 in 62.0 W/m2 RA
18:04 11.2 °F 9.8 °F 1015.8 in West 18.5 mph 18.5 mph 91 % 3.0 in 72.0 W/m2 RA
18:09 11.2 °F 9.9 °F 1015.8 in WNW 13.0 mph 13.0 mph 92 % 3.3 in 70.0 W/m2 RA
18:14 11.2 °F 9.9 °F 1015.8 in WNW 14.5 mph 14.5 mph 92 % 3.6 in 42.0 W/m2 RA
18:19 11.1 °F 9.7 °F 1016.1 in WNW 18.5 mph 18.5 mph 91 % 3.8 in 76.0 W/m2 RA
18:24 11.1 °F 9.7 °F 1016.1 in NW 25.7 mph 25.7 mph 91 % 3.6 in 42.0 W/m2 SCT
18:29 11.1 °F 9.7 °F 1016.5 in NW 22.2 mph 22.2 mph 91 % 3.3 in 60.0 W/m2 SCT
18:34 11.1 °F 9.7 °F 1016.1 in NW 24.1 mph 24.1 mph 91 % 3.0 in 77.0 W/m2 RA
18:39 11.1 °F 9.7 °F 1016.1 in NNW 18.5 mph 18.5 mph 91 % 2.8 in 70.0 W/m2 FEW
18:44 11.1 °F 9.7 °F 1016.1 in NW 22.2 mph 22.2 mph 91 % 2.3 in 84.0 W/m2 FEW
18:49 11.2 °F 9.8 °F 1016.1 in NNW 20.9 mph 20.9 mph 91 % 2.0 in 118.0 W/m2 FEW
18:54 11.3 °F 9.9 °F 1016.5 in WNW 22.2 mph 22.2 mph 91 % 1.5 in 86.0 W/m2 CLR
18:59 11.3 °F 9.8 °F 1016.5 in NW 27.8 mph 27.8 mph 90 % 1.5 in 128.0 W/m2 CLR
19:04 11.4 °F 9.8 °F 1016.5 in NW 18.5 mph 18.5 mph 90 % 1.0 in 223.0 W/m2 CLR
19:09 11.6 °F 9.9 °F 1016.5 in WNW 22.2 mph 22.2 mph 90 % 0.5 in 232.0 W/m2 CLR
19:14 11.6 °F 9.8 °F 1016.8 in NW 24.1 mph 24.1 mph 89 % 0.5 in 102.0 W/m2 CLR
19:20 11.6 °F 9.8 °F 1016.8 in WNW 20.4 mph 20.4 mph 89 % 0.3 in 91.0 W/m2 CLR
19:25 11.5 °F 9.6 °F 1016.5 in NNW 33.3 mph 33.3 mph 88 % 0.3 in 84.0 W/m2 CLR
19:30 11.4 °F 9.5 °F 1016.5 in WNW 25.9 mph 25.9 mph 88 % 0.3 in 98.0 W/m2 CLR
19:35 11.4 °F 9.5 °F 1016.8 in West 18.5 mph 18.5 mph 88 % 0.0 in 146.0 W/m2 CLR
19:40 11.5 °F 9.4 °F 1016.5 in WNW 20.9 mph 20.9 mph 87 % 0.0 in 141.0 W/m2 CLR
19:45 11.6 °F 9.7 °F 1016.5 in WNW 20.4 mph 20.4 mph 88 % 0.0 in 123.0 W/m2 CLR
19:50 11.7 °F 9.6 °F 1016.5 in WNW 25.9 mph 25.9 mph 87 % 0.0 in 123.0 W/m2 CLR
19:55 11.7 °F 9.4 °F 1016.5 in West 25.9 mph 25.9 mph 86 % 0.0 in 65.0 W/m2 CLR
20:00 11.8 °F 9.5 °F 1016.8 in West 27.8 mph 27.8 mph 86 % 0.0 in 158.0 W/m2 CLR
20:05 11.9 °F 9.4 °F 1016.8 in WNW 24.1 mph 24.1 mph 85 % 0.0 in 127.0 W/m2 CLR
20:10 12.1 °F 9.6 °F 1016.8 in WNW 22.2 mph 22.2 mph 85 % 0.0 in 111.0 W/m2 CLR
20:15 12.0 °F 9.6 °F 1016.8 in WNW 18.5 mph 18.5 mph 85 % 0.0 in 39.0 W/m2 BKN
20:20 12.1 °F 9.6 °F 1016.8 in West 22.2 mph 22.2 mph 85 % 0.0 in 79.0 W/m2 BKN
20:25 12.2 °F 9.6 °F 1016.8 in West 17.7 mph 17.7 mph 84 % 0.0 in 65.0 W/m2 FEW
20:30 12.2 °F 9.4 °F 1017.2 in WNW 20.4 mph 20.4 mph 83 % 0.0 in 23.0 W/m2 BKN
20:35 12.1 °F 9.1 °F 1017.2 in WNW 32.2 mph 32.2 mph 82 % 0.0 in 25.0 W/m2 BKN
20:40 12.1 °F 9.1 °F 1017.2 in WNW 29.6 mph 29.6 mph 82 % 0.0 in 30.0 W/m2 BKN
20:45 12.1 °F 9.1 °F 1017.2 in West 24.1 mph 24.1 mph 82 % 0.0 in 23.0 W/m2 BKN
20:50 12.0 °F 8.8 °F 1016.8 in WNW 30.6 mph 30.6 mph 81 % 0.0 in 16.0 W/m2 BKN
20:55 11.8 °F 8.7 °F 1017.2 in WNW 25.9 mph 25.9 mph 81 % 0.0 in 12.0 W/m2 BKN
21:00 11.7 °F 8.7 °F 1017.2 in WNW 30.6 mph 30.6 mph 82 % 0.0 in 11.0 W/m2 BKN
21:05 11.7 °F 8.5 °F 1017.2 in WNW 27.8 mph 27.8 mph 81 % 0.0 in 9.0 W/m2 BKN
21:10 11.6 °F 8.4 °F 1017.2 in WNW 31.5 mph 31.5 mph 81 % 0.0 in 5.0 W/m2 BKN
21:15 11.6 °F 8.4 °F 1017.2 in WNW 31.5 mph 31.5 mph 81 % 0.0 in 0.0 W/m2 OVC
21:20 11.6 °F 8.4 °F 1017.2 in WNW 31.5 mph 31.5 mph 81 % 0.0 in 0.0 W/m2 OVC
21:25 11.4 °F 8.3 °F 1017.5 in WNW 27.8 mph 27.8 mph 81 % 0.0 in 0.0 W/m2 CLR
21:30 11.4 °F 8.2 °F 1017.8 in WNW 22.2 mph 22.2 mph 81 % 0.0 in 0.0 W/m2 CLR
21:35 11.3 °F 8.0 °F 1017.8 in NW 35.2 mph 35.2 mph 80 % 0.0 in 0.0 W/m2 CLR
21:40 11.3 °F 7.8 °F 1017.8 in WNW 25.9 mph 25.9 mph 79 % 0.0 in 0.0 W/m2 CLR
21:45 11.2 °F 7.7 °F 1018.2 in WNW 24.1 mph 24.1 mph 79 % 0.0 in 0.0 W/m2 CLR
21:50 11.2 °F 7.7 °F 1018.2 in WNW 22.5 mph 22.5 mph 79 % 0.0 in 0.0 W/m2 CLR
21:55 11.2 °F 7.7 °F 1018.2 in WNW 18.5 mph 18.5 mph 79 % 0.0 in 0.0 W/m2 CLR
22:00 11.2 °F 7.7 °F 1018.2 in West 22.2 mph 22.2 mph 79 % 0.0 in 0.0 W/m2 CLR
22:05 11.2 °F 7.7 °F 1018.5 in West 18.5 mph 18.5 mph 79 % 0.0 in 0.0 W/m2 CLR
22:10 11.1 °F 7.6 °F 1018.5 in West 18.5 mph 18.5 mph 79 % 0.0 in 0.0 W/m2 CLR
22:15 11.1 °F 7.6 °F 1018.5 in West 20.4 mph 20.4 mph 79 % 0.0 in 0.0 W/m2 CLR
22:20 11.1 °F 7.4 °F 1018.5 in WNW 22.5 mph 22.5 mph 78 % 0.0 in 0.0 W/m2 CLR
22:25 11.1 °F 7.4 °F 1018.5 in West 20.9 mph 20.9 mph 78 % 0.0 in 0.0 W/m2 CLR
22:30 11.1 °F 7.2 °F 1018.5 in West 24.1 mph 24.1 mph 77 % 0.0 in 0.0 W/m2 CLR
22:35 11.1 °F 7.2 °F 1018.5 in NW 27.8 mph 27.8 mph 77 % 0.0 in 0.0 W/m2 CLR
22:40 11.1 °F 7.2 °F 1018.5 in WNW 22.5 mph 22.5 mph 77 % 0.0 in 0.0 W/m2 CLR
22:45 11.1 °F 7.2 °F 1018.5 in WNW 27.4 mph 27.4 mph 77 % 0.0 in 0.0 W/m2 CLR
22:50 11.2 °F 7.1 °F 1018.5 in WNW 22.2 mph 22.2 mph 76 % 0.0 in 0.0 W/m2 CLR
22:55 11.1 °F 7.1 °F 1018.8 in WNW 24.1 mph 24.1 mph 76 % 0.0 in 0.0 W/m2 CLR
23:00 11.0 °F 7.1 °F 1018.8 in WNW 16.7 mph 16.7 mph 77 % 0.0 in 0.0 W/m2 CLR
23:05 10.9 °F 7.1 °F 1018.8 in WNW 22.2 mph 22.2 mph 77 % 0.0 in 0.0 W/m2 CLR
23:10 11.0 °F 7.1 °F 1018.8 in WNW 14.8 mph 14.8 mph 77 % 0.0 in 0.0 W/m2 CLR
23:15 10.9 °F 7.1 °F 1018.8 in West 18.5 mph 18.5 mph 77 % 0.0 in 0.0 W/m2 CLR
23:20 11.0 °F 7.1 °F 1018.5 in NW 35.2 mph 35.2 mph 77 % 0.0 in 0.0 W/m2 CLR
23:25 11.1 °F 7.0 °F 1018.5 in West 22.2 mph 22.2 mph 76 % 0.0 in 0.0 W/m2 CLR
23:30 11.0 °F 7.1 °F 1018.5 in WNW 18.5 mph 18.5 mph 77 % 0.0 in 0.0 W/m2 CLR
23:35 11.0 °F 7.1 °F 1018.5 in WNW 22.2 mph 22.2 mph 77 % 0.0 in 0.0 W/m2 CLR
23:40 11.0 °F 7.1 °F 1018.5 in West 24.1 mph 24.1 mph 77 % 0.0 in 0.0 W/m2 CLR
23:45 11.0 °F 7.1 °F 1018.5 in WNW 25.9 mph 25.9 mph 77 % 0.0 in 0.0 W/m2 CLR
23:50 11.0 °F 7.1 °F 1018.5 in WNW 25.9 mph 25.9 mph 77 % 0.0 in 0.0 W/m2 CLR
23:55 11.0 °F 7.1 °F 1018.5 in WNW 22.5 mph 22.5 mph 77 % 0.0 in 0.0 W/m2 CLR
Lo Temps de Massalio
Compliments of Weather Underground - 1.25 mb